Mechanicsburg, Ohio
Current Conditions -  °F | °C
As of 5:35 AM on Tuesday 27 Jan 2015 (Local Time) from KUYF Reporting Station
Clear Clear  
Wind Chill:   Ceiling: Unl
Heat Index:   Visibility: 7mi
Dew Point:   Wind: 5mph
Humidity: 92%   Direction: 360°N
Pressure: 29.93"   Gusts: NA
Location:  40.07°N, 83.56°W
Report Text: KUYF 271035Z AUTO 36004KT 7SM CLR M13/M14 A2993 RMK AO2
Loading
Personal Weather Stations






























Interactive Weather Map New forecast layout! Learn more

10-Day Weather Forecast

Advertisements
Track Severe Weather on mobile